sensor_id;sensor_type;location;lat;lon;timestamp;temperature;humidity
32356;DHT22;62578;53.556;9.914;2022-08-01T00:00:23;25.70;53.90
32356;DHT22;62578;53.556;9.914;2022-08-01T00:02:49;25.70;53.90
32356;DHT22;62578;53.556;9.914;2022-08-01T00:05:14;25.70;53.90
32356;DHT22;62578;53.556;9.914;2022-08-01T00:07:40;25.70;53.80
32356;DHT22;62578;53.556;9.914;2022-08-01T00:10:09;25.70;53.80
32356;DHT22;62578;53.556;9.914;2022-08-01T00:12:35;25.70;53.80
32356;DHT22;62578;53.556;9.914;2022-08-01T00:15:01;25.70;53.80
32356;DHT22;62578;53.556;9.914;2022-08-01T00:17:26;25.70;53.80
32356;DHT22;62578;53.556;9.914;2022-08-01T00:19:52;25.70;53.70
32356;DHT22;62578;53.556;9.914;2022-08-01T00:22:18;25.70;53.70
32356;DHT22;62578;53.556;9.914;2022-08-01T00:24:43;25.70;53.70
32356;DHT22;62578;53.556;9.914;2022-08-01T00:27:09;25.70;53.70
32356;DHT22;62578;53.556;9.914;2022-08-01T00:29:35;25.70;53.70
32356;DHT22;62578;53.556;9.914;2022-08-01T00:32:00;25.70;53.70
32356;DHT22;62578;53.556;9.914;2022-08-01T00:34:26;25.70;53.70
32356;DHT22;62578;53.556;9.914;2022-08-01T00:36:51;25.70;53.70
32356;DHT22;62578;53.556;9.914;2022-08-01T00:39:17;25.70;53.70
32356;DHT22;62578;53.556;9.914;2022-08-01T00:41:42;25.70;53.60
32356;DHT22;62578;53.556;9.914;2022-08-01T00:44:08;25.70;53.60
32356;DHT22;62578;53.556;9.914;2022-08-01T00:46:34;25.70;53.60
32356;DHT22;62578;53.556;9.914;2022-08-01T00:49:00;25.70;53.50
32356;DHT22;62578;53.556;9.914;2022-08-01T00:51:26;25.70;53.50
32356;DHT22;62578;53.556;9.914;2022-08-01T00:53:52;25.70;53.50
32356;DHT22;62578;53.556;9.914;2022-08-01T00:56:20;25.70;53.50
32356;DHT22;62578;53.556;9.914;2022-08-01T00:58:46;25.70;53.50
32356;DHT22;62578;53.556;9.914;2022-08-01T01:01:12;25.70;53.50
32356;DHT22;62578;53.556;9.914;2022-08-01T01:03:38;25.70;53.50
32356;DHT22;62578;53.556;9.914;2022-08-01T01:08:41;25.70;53.40
32356;DHT22;62578;53.556;9.914;2022-08-01T01:11:16;25.70;53.40
32356;DHT22;62578;53.556;9.914;2022-08-01T01:13:51;25.70;53.40
32356;DHT22;62578;53.556;9.914;2022-08-01T01:16:19;25.70;53.40
32356;DHT22;62578;53.556;9.914;2022-08-01T01:18:51;25.70;53.40
32356;DHT22;62578;53.556;9.914;2022-08-01T01:26:51;25.70;53.30
32356;DHT22;62578;53.556;9.914;2022-08-01T01:29:44;25.70;53.30
32356;DHT22;62578;53.556;9.914;2022-08-01T01:32:18;25.70;53.30
32356;DHT22;62578;53.556;9.914;2022-08-01T01:34:45;25.70;53.30
32356;DHT22;62578;53.556;9.914;2022-08-01T01:37:19;25.60;53.30
32356;DHT22;62578;53.556;9.914;2022-08-01T01:39:49;25.60;53.20
32356;DHT22;62578;53.556;9.914;2022-08-01T01:42:17;25.70;53.30
32356;DHT22;62578;53.556;9.914;2022-08-01T01:44:44;25.60;53.20
32356;DHT22;62578;53.556;9.914;2022-08-01T01:47:12;25.60;53.20
32356;DHT22;62578;53.556;9.914;2022-08-01T01:49:40;25.60;53.20
32356;DHT22;62578;53.556;9.914;2022-08-01T01:52:07;25.60;53.20
32356;DHT22;62578;53.556;9.914;2022-08-01T01:54:37;25.60;53.20
32356;DHT22;62578;53.556;9.914;2022-08-01T01:57:05;25.60;53.10
32356;DHT22;62578;53.556;9.914;2022-08-01T01:59:34;25.70;53.20
32356;DHT22;62578;53.556;9.914;2022-08-01T02:02:03;25.60;53.10
32356;DHT22;62578;53.556;9.914;2022-08-01T02:04:30;25.70;53.20
32356;DHT22;62578;53.556;9.914;2022-08-01T02:06:57;25.60;53.10
32356;DHT22;62578;53.556;9.914;2022-08-01T02:09:24;25.60;53.10
32356;DHT22;62578;53.556;9.914;2022-08-01T02:11:51;25.60;53.10
32356;DHT22;62578;53.556;9.914;2022-08-01T02:14:19;25.70;53.20
32356;DHT22;62578;53.556;9.914;2022-08-01T02:16:48;25.60;53.10
32356;DHT22;62578;53.556;9.914;2022-08-01T02:19:17;25.60;53.10
32356;DHT22;62578;53.556;9.914;2022-08-01T02:24:21;25.70;53.10
32356;DHT22;62578;53.556;9.914;2022-08-01T02:26:51;25.60;53.00
32356;DHT22;62578;53.556;9.914;2022-08-01T02:29:25;25.60;53.00
32356;DHT22;62578;53.556;9.914;2022-08-01T02:31:54;25.60;53.00
32356;DHT22;62578;53.556;9.914;2022-08-01T02:34:21;25.60;53.00
32356;DHT22;62578;53.556;9.914;2022-08-01T02:36:48;25.60;53.10
32356;DHT22;62578;53.556;9.914;2022-08-01T02:39:17;25.60;53.00
32356;DHT22;62578;53.556;9.914;2022-08-01T02:41:47;25.60;53.00
32356;DHT22;62578;53.556;9.914;2022-08-01T02:44:28;25.60;53.00
32356;DHT22;62578;53.556;9.914;2022-08-01T02:47:00;25.60;52.90
32356;DHT22;62578;53.556;9.914;2022-08-01T02:49:37;25.60;53.00
32356;DHT22;62578;53.556;9.914;2022-08-01T02:52:07;25.60;53.00
32356;DHT22;62578;53.556;9.914;2022-08-01T02:54:35;25.60;53.00
32356;DHT22;62578;53.556;9.914;2022-08-01T02:57:02;25.60;53.00
32356;DHT22;62578;53.556;9.914;2022-08-01T02:59:29;25.60;53.00
32356;DHT22;62578;53.556;9.914;2022-08-01T03:01:58;25.60;52.90
32356;DHT22;62578;53.556;9.914;2022-08-01T03:04:25;25.60;53.00
32356;DHT22;62578;53.556;9.914;2022-08-01T03:06:53;25.60;52.90
32356;DHT22;62578;53.556;9.914;2022-08-01T03:09:20;25.60;52.90
32356;DHT22;62578;53.556;9.914;2022-08-01T03:11:48;25.60;52.90
32356;DHT22;62578;53.556;9.914;2022-08-01T03:14:14;25.60;52.90
32356;DHT22;62578;53.556;9.914;2022-08-01T03:16:42;25.60;52.80
32356;DHT22;62578;53.556;9.914;2022-08-01T03:19:11;25.60;52.90
32356;DHT22;62578;53.556;9.914;2022-08-01T03:21:39;25.60;52.90
32356;DHT22;62578;53.556;9.914;2022-08-01T03:24:07;25.60;52.80
32356;DHT22;62578;53.556;9.914;2022-08-01T03:26:34;25.60;53.00
32356;DHT22;62578;53.556;9.914;2022-08-01T03:29:06;25.60;52.80
32356;DHT22;62578;53.556;9.914;2022-08-01T03:31:34;25.60;52.80
32356;DHT22;62578;53.556;9.914;2022-08-01T03:34:00;25.60;52.80
32356;DHT22;62578;53.556;9.914;2022-08-01T03:36:26;25.60;52.80
32356;DHT22;62578;53.556;9.914;2022-08-01T03:38:57;25.60;52.80
32356;DHT22;62578;53.556;9.914;2022-08-01T03:41:27;25.60;52.80
32356;DHT22;62578;53.556;9.914;2022-08-01T03:44:03;25.60;52.80
32356;DHT22;62578;53.556;9.914;2022-08-01T03:46:40;25.60;52.70
32356;DHT22;62578;53.556;9.914;2022-08-01T03:49:20;25.60;52.70
32356;DHT22;62578;53.556;9.914;2022-08-01T03:51:47;25.60;52.70
32356;DHT22;62578;53.556;9.914;2022-08-01T03:54:16;25.60;52.80
32356;DHT22;62578;53.556;9.914;2022-08-01T03:56:43;25.60;52.70
32356;DHT22;62578;53.556;9.914;2022-08-01T03:59:11;25.60;52.70
32356;DHT22;62578;53.556;9.914;2022-08-01T04:01:37;25.60;52.70
32356;DHT22;62578;53.556;9.914;2022-08-01T04:04:03;25.60;52.70
32356;DHT22;62578;53.556;9.914;2022-08-01T04:06:31;25.60;52.70
32356;DHT22;62578;53.556;9.914;2022-08-01T04:08:56;25.60;52.70
32356;DHT22;62578;53.556;9.914;2022-08-01T04:11:26;25.60;53.30
32356;DHT22;62578;53.556;9.914;2022-08-01T04:13:53;25.60;52.70
32356;DHT22;62578;53.556;9.914;2022-08-01T04:16:20;25.60;52.70
32356;DHT22;62578;53.556;9.914;2022-08-01T04:18:46;25.60;52.70
32356;DHT22;62578;53.556;9.914;2022-08-01T04:21:13;25.60;52.70
32356;DHT22;62578;53.556;9.914;2022-08-01T04:23:41;25.60;52.70
32356;DHT22;62578;53.556;9.914;2022-08-01T04:26:09;25.60;52.70
32356;DHT22;62578;53.556;9.914;2022-08-01T04:28:37;25.60;52.70
32356;DHT22;62578;53.556;9.914;2022-08-01T04:31:06;25.60;52.60
32356;DHT22;62578;53.556;9.914;2022-08-01T04:33:35;25.60;52.60
32356;DHT22;62578;53.556;9.914;2022-08-01T04:36:03;25.60;52.60
32356;DHT22;62578;53.556;9.914;2022-08-01T04:38:31;25.60;52.60
32356;DHT22;62578;53.556;9.914;2022-08-01T04:40:57;25.50;52.50
32356;DHT22;62578;53.556;9.914;2022-08-01T04:43:23;25.60;52.60
32356;DHT22;62578;53.556;9.914;2022-08-01T04:45:49;25.60;52.60
32356;DHT22;62578;53.556;9.914;2022-08-01T04:48:17;25.50;54.10
32356;DHT22;62578;53.556;9.914;2022-08-01T04:50:45;25.50;55.10
32356;DHT22;62578;53.556;9.914;2022-08-01T04:53:19;25.40;55.50
32356;DHT22;62578;53.556;9.914;2022-08-01T04:55:47;25.30;56.20
32356;DHT22;62578;53.556;9.914;2022-08-01T04:58:14;25.20;56.30
32356;DHT22;62578;53.556;9.914;2022-08-01T05:00:40;25.20;56.40
32356;DHT22;62578;53.556;9.914;2022-08-01T05:03:06;25.10;56.90
32356;DHT22;62578;53.556;9.914;2022-08-01T05:05:32;25.00;57.60
32356;DHT22;62578;53.556;9.914;2022-08-01T05:07:58;24.90;57.90
32356;DHT22;62578;53.556;9.914;2022-08-01T05:10:24;24.80;58.30
32356;DHT22;62578;53.556;9.914;2022-08-01T05:12:51;24.70;59.00
32356;DHT22;62578;53.556;9.914;2022-08-01T05:15:17;24.50;59.50
32356;DHT22;62578;53.556;9.914;2022-08-01T05:17:42;24.40;59.80
32356;DHT22;62578;53.556;9.914;2022-08-01T05:20:09;24.30;60.20
32356;DHT22;62578;53.556;9.914;2022-08-01T05:22:35;24.20;61.10
32356;DHT22;62578;53.556;9.914;2022-08-01T05:25:00;24.20;61.00
32356;DHT22;62578;53.556;9.914;2022-08-01T05:27:26;24.10;61.30
32356;DHT22;62578;53.556;9.914;2022-08-01T05:29:52;24.00;61.70
32356;DHT22;62578;53.556;9.914;2022-08-01T05:32:17;24.00;61.90
32356;DHT22;62578;53.556;9.914;2022-08-01T05:34:43;23.90;62.80
32356;DHT22;62578;53.556;9.914;2022-08-01T05:37:09;23.80;62.30
32356;DHT22;62578;53.556;9.914;2022-08-01T05:39:35;23.80;62.70
32356;DHT22;62578;53.556;9.914;2022-08-01T05:42:01;23.80;63.00
32356;DHT22;62578;53.556;9.914;2022-08-01T05:44:27;23.70;63.50
32356;DHT22;62578;53.556;9.914;2022-08-01T05:46:52;23.60;63.70
32356;DHT22;62578;53.556;9.914;2022-08-01T05:49:18;23.50;63.60
32356;DHT22;62578;53.556;9.914;2022-08-01T05:51:44;23.60;63.50
32356;DHT22;62578;53.556;9.914;2022-08-01T05:54:09;23.60;63.80
32356;DHT22;62578;53.556;9.914;2022-08-01T05:56:35;23.50;64.00
32356;DHT22;62578;53.556;9.914;2022-08-01T05:59:01;23.40;64.10
32356;DHT22;62578;53.556;9.914;2022-08-01T06:01:26;23.40;64.10
32356;DHT22;62578;53.556;9.914;2022-08-01T06:03:52;23.40;64.20
32356;DHT22;62578;53.556;9.914;2022-08-01T06:06:20;23.20;64.10
32356;DHT22;62578;53.556;9.914;2022-08-01T06:08:46;23.30;64.10
32356;DHT22;62578;53.556;9.914;2022-08-01T06:11:11;23.30;64.10
32356;DHT22;62578;53.556;9.914;2022-08-01T06:13:43;23.30;64.10
32356;DHT22;62578;53.556;9.914;2022-08-01T06:16:09;23.20;64.10
32356;DHT22;62578;53.556;9.914;2022-08-01T06:18:34;23.20;64.30
32356;DHT22;62578;53.556;9.914;2022-08-01T06:21:00;23.20;64.50
32356;DHT22;62578;53.556;9.914;2022-08-01T06:23:25;23.20;65.40
32356;DHT22;62578;53.556;9.914;2022-08-01T06:25:54;23.20;64.50
32356;DHT22;62578;53.556;9.914;2022-08-01T06:28:21;23.20;64.50
32356;DHT22;62578;53.556;9.914;2022-08-01T06:30:47;23.20;64.40
32356;DHT22;62578;53.556;9.914;2022-08-01T06:33:12;23.10;64.50
32356;DHT22;62578;53.556;9.914;2022-08-01T06:35:38;23.20;64.50
32356;DHT22;62578;53.556;9.914;2022-08-01T06:38:03;23.20;64.50
32356;DHT22;62578;53.556;9.914;2022-08-01T06:40:29;23.10;64.40
32356;DHT22;62578;53.556;9.914;2022-08-01T06:42:55;23.00;64.40
32356;DHT22;62578;53.556;9.914;2022-08-01T06:45:21;23.00;64.30
32356;DHT22;62578;53.556;9.914;2022-08-01T06:47:51;23.00;64.30
32356;DHT22;62578;53.556;9.914;2022-08-01T06:50:16;23.00;64.40
32356;DHT22;62578;53.556;9.914;2022-08-01T06:52:42;22.90;64.40
32356;DHT22;62578;53.556;9.914;2022-08-01T06:55:08;22.90;64.50
32356;DHT22;62578;53.556;9.914;2022-08-01T06:57:34;22.90;64.30
32356;DHT22;62578;53.556;9.914;2022-08-01T07:00:05;22.90;64.40
32356;DHT22;62578;53.556;9.914;2022-08-01T07:02:33;22.90;64.70
32356;DHT22;62578;53.556;9.914;2022-08-01T07:04:59;22.80;64.80
32356;DHT22;62578;53.556;9.914;2022-08-01T07:07:26;22.80;65.00
32356;DHT22;62578;53.556;9.914;2022-08-01T07:09:52;22.80;64.90
32356;DHT22;62578;53.556;9.914;2022-08-01T07:12:18;22.80;64.90
32356;DHT22;62578;53.556;9.914;2022-08-01T07:14:43;22.80;65.00
32356;DHT22;62578;53.556;9.914;2022-08-01T07:17:09;22.80;64.80
32356;DHT22;62578;53.556;9.914;2022-08-01T07:19:34;22.90;64.40
32356;DHT22;62578;53.556;9.914;2022-08-01T07:22:00;23.00;64.00
32356;DHT22;62578;53.556;9.914;2022-08-01T07:24:25;23.00;63.60
32356;DHT22;62578;53.556;9.914;2022-08-01T07:26:51;23.20;63.30
32356;DHT22;62578;53.556;9.914;2022-08-01T07:29:19;23.20;62.80
32356;DHT22;62578;53.556;9.914;2022-08-01T07:31:45;23.20;62.60
32356;DHT22;62578;53.556;9.914;2022-08-01T07:34:10;23.20;62.30
32356;DHT22;62578;53.556;9.914;2022-08-01T07:36:36;23.30;62.00
32356;DHT22;62578;53.556;9.914;2022-08-01T07:39:02;23.30;61.80
32356;DHT22;62578;53.556;9.914;2022-08-01T07:41:27;23.40;61.70
32356;DHT22;62578;53.556;9.914;2022-08-01T07:43:53;23.30;61.50
32356;DHT22;62578;53.556;9.914;2022-08-01T07:46:19;23.40;61.50
32356;DHT22;62578;53.556;9.914;2022-08-01T07:48:44;23.40;61.30
32356;DHT22;62578;53.556;9.914;2022-08-01T07:51:10;23.50;61.00
32356;DHT22;62578;53.556;9.914;2022-08-01T07:53:36;23.50;60.90
32356;DHT22;62578;53.556;9.914;2022-08-01T07:56:02;23.60;60.70
32356;DHT22;62578;53.556;9.914;2022-08-01T07:58:30;23.60;60.60
32356;DHT22;62578;53.556;9.914;2022-08-01T08:00:55;23.60;60.50
32356;DHT22;62578;53.556;9.914;2022-08-01T08:03:21;23.60;60.40
32356;DHT22;62578;53.556;9.914;2022-08-01T08:05:47;23.60;60.30
32356;DHT22;62578;53.556;9.914;2022-08-01T08:08:12;23.60;60.00
32356;DHT22;62578;53.556;9.914;2022-08-01T08:10:39;23.70;60.70
32356;DHT22;62578;53.556;9.914;2022-08-01T08:13:05;23.70;59.70
32356;DHT22;62578;53.556;9.914;2022-08-01T08:15:31;23.70;59.40
32356;DHT22;62578;53.556;9.914;2022-08-01T08:17:56;23.70;59.20
32356;DHT22;62578;53.556;9.914;2022-08-01T08:20:22;23.70;59.10
32356;DHT22;62578;53.556;9.914;2022-08-01T08:22:51;23.70;58.90
32356;DHT22;62578;53.556;9.914;2022-08-01T08:25:16;23.70;58.10
32356;DHT22;62578;53.556;9.914;2022-08-01T08:27:44;23.70;57.40
32356;DHT22;62578;53.556;9.914;2022-08-01T08:30:10;23.70;57.20
32356;DHT22;62578;53.556;9.914;2022-08-01T08:32:37;23.70;56.70
32356;DHT22;62578;53.556;9.914;2022-08-01T08:35:04;23.70;56.20
32356;DHT22;62578;53.556;9.914;2022-08-01T08:37:30;23.60;55.80
32356;DHT22;62578;53.556;9.914;2022-08-01T08:39:56;23.70;55.90
32356;DHT22;62578;53.556;9.914;2022-08-01T08:42:21;23.70;55.80
32356;DHT22;62578;53.556;9.914;2022-08-01T08:44:47;23.60;55.60
32356;DHT22;62578;53.556;9.914;2022-08-01T08:47:14;23.70;55.80
32356;DHT22;62578;53.556;9.914;2022-08-01T08:49:42;23.70;55.50
32356;DHT22;62578;53.556;9.914;2022-08-01T08:52:08;23.60;55.00
32356;DHT22;62578;53.556;9.914;2022-08-01T08:54:37;23.70;54.60
32356;DHT22;62578;53.556;9.914;2022-08-01T08:57:03;23.70;54.60
32356;DHT22;62578;53.556;9.914;2022-08-01T08:59:29;23.70;54.20
32356;DHT22;62578;53.556;9.914;2022-08-01T09:01:55;23.70;54.00
32356;DHT22;62578;53.556;9.914;2022-08-01T09:04:21;23.70;54.20
32356;DHT22;62578;53.556;9.914;2022-08-01T09:06:50;23.80;53.80
32356;DHT22;62578;53.556;9.914;2022-08-01T09:09:16;23.70;53.60
32356;DHT22;62578;53.556;9.914;2022-08-01T09:11:41;23.80;54.30
32356;DHT22;62578;53.556;9.914;2022-08-01T09:14:16;23.80;53.90
32356;DHT22;62578;53.556;9.914;2022-08-01T09:17:03;23.80;53.80
32356;DHT22;62578;53.556;9.914;2022-08-01T09:20:01;23.80;53.80
32356;DHT22;62578;53.556;9.914;2022-08-01T09:22:32;23.80;53.90
32356;DHT22;62578;53.556;9.914;2022-08-01T09:25:00;23.90;54.10
32356;DHT22;62578;53.556;9.914;2022-08-01T09:27:26;23.90;54.20
32356;DHT22;62578;53.556;9.914;2022-08-01T09:29:52;23.90;54.40
32356;DHT22;62578;53.556;9.914;2022-08-01T09:32:19;23.90;54.50
32356;DHT22;62578;53.556;9.914;2022-08-01T09:34:45;24.00;54.60
32356;DHT22;62578;53.556;9.914;2022-08-01T09:37:12;24.00;54.60
32356;DHT22;62578;53.556;9.914;2022-08-01T09:39:42;24.00;54.80
32356;DHT22;62578;53.556;9.914;2022-08-01T09:42:30;23.90;55.60
32356;DHT22;62578;53.556;9.914;2022-08-01T09:44:56;24.00;55.20
32356;DHT22;62578;53.556;9.914;2022-08-01T09:47:22;23.90;55.40
32356;DHT22;62578;53.556;9.914;2022-08-01T09:50:01;23.80;55.90
32356;DHT22;62578;53.556;9.914;2022-08-01T09:52:27;23.80;55.40
32356;DHT22;62578;53.556;9.914;2022-08-01T09:54:58;23.80;55.70
32356;DHT22;62578;53.556;9.914;2022-08-01T09:57:25;23.80;55.70
32356;DHT22;62578;53.556;9.914;2022-08-01T09:59:53;23.80;55.70
32356;DHT22;62578;53.556;9.914;2022-08-01T10:02:31;23.80;56.40
32356;DHT22;62578;53.556;9.914;2022-08-01T10:04:58;23.80;55.90
32356;DHT22;62578;53.556;9.914;2022-08-01T10:07:24;23.80;55.90
32356;DHT22;62578;53.556;9.914;2022-08-01T10:09:49;23.80;55.90
32356;DHT22;62578;53.556;9.914;2022-08-01T10:12:18;23.80;55.50
32356;DHT22;62578;53.556;9.914;2022-08-01T10:14:46;23.80;55.00
32356;DHT22;62578;53.556;9.914;2022-08-01T10:17:16;23.80;54.90
32356;DHT22;62578;53.556;9.914;2022-08-01T10:19:43;23.70;54.60
32356;DHT22;62578;53.556;9.914;2022-08-01T10:22:11;23.70;54.70
32356;DHT22;62578;53.556;9.914;2022-08-01T10:24:39;23.70;54.40
32356;DHT22;62578;53.556;9.914;2022-08-01T10:27:10;23.70;54.40
32356;DHT22;62578;53.556;9.914;2022-08-01T10:29:56;23.70;54.60
32356;DHT22;62578;53.556;9.914;2022-08-01T10:32:34;23.70;54.50
32356;DHT22;62578;53.556;9.914;2022-08-01T10:35:04;23.70;54.00
32356;DHT22;62578;53.556;9.914;2022-08-01T10:37:31;23.70;53.40
32356;DHT22;62578;53.556;9.914;2022-08-01T10:39:58;23.70;53.30
32356;DHT22;62578;53.556;9.914;2022-08-01T10:42:24;23.70;53.70
32356;DHT22;62578;53.556;9.914;2022-08-01T10:44:51;23.70;52.90
32356;DHT22;62578;53.556;9.914;2022-08-01T10:50:31;23.70;52.60
32356;DHT22;62578;53.556;9.914;2022-08-01T10:53:12;23.70;53.00
32356;DHT22;62578;53.556;9.914;2022-08-01T10:58:37;23.80;51.90
32356;DHT22;62578;53.556;9.914;2022-08-01T11:01:21;23.80;51.10
32356;DHT22;62578;53.556;9.914;2022-08-01T11:09:00;23.80;50.80
32356;DHT22;62578;53.556;9.914;2022-08-01T11:11:26;23.80;51.10
32356;DHT22;62578;53.556;9.914;2022-08-01T11:14:03;23.80;51.10
32356;DHT22;62578;53.556;9.914;2022-08-01T11:16:35;23.80;50.20
32356;DHT22;62578;53.556;9.914;2022-08-01T11:19:04;23.80;50.20
32356;DHT22;62578;53.556;9.914;2022-08-01T11:27:41;23.80;49.60
32356;DHT22;62578;53.556;9.914;2022-08-01T11:35:14;23.90;49.20
32356;DHT22;62578;53.556;9.914;2022-08-01T11:37:40;23.90;49.40
32356;DHT22;62578;53.556;9.914;2022-08-01T11:42:45;23.90;49.20
32356;DHT22;62578;53.556;9.914;2022-08-01T11:45:11;23.90;49.20
32356;DHT22;62578;53.556;9.914;2022-08-01T11:53:01;23.90;49.00
32356;DHT22;62578;53.556;9.914;2022-08-01T11:55:28;23.90;49.50
32356;DHT22;62578;53.556;9.914;2022-08-01T11:58:06;23.90;49.80
32356;DHT22;62578;53.556;9.914;2022-08-01T12:00:32;23.90;49.80
32356;DHT22;62578;53.556;9.914;2022-08-01T12:03:03;23.90;49.80
32356;DHT22;62578;53.556;9.914;2022-08-01T12:05:30;24.00;50.10
32356;DHT22;62578;53.556;9.914;2022-08-01T12:07:57;24.00;50.10
32356;DHT22;62578;53.556;9.914;2022-08-01T12:10:28;24.00;49.80
32356;DHT22;62578;53.556;9.914;2022-08-01T12:13:01;24.00;50.20
32356;DHT22;62578;53.556;9.914;2022-08-01T12:15:35;24.10;49.60
32356;DHT22;62578;53.556;9.914;2022-08-01T12:18:03;24.10;49.80
32356;DHT22;62578;53.556;9.914;2022-08-01T12:20:38;24.00;49.50
32356;DHT22;62578;53.556;9.914;2022-08-01T12:23:07;24.00;49.10
32356;DHT22;62578;53.556;9.914;2022-08-01T12:25:34;24.00;49.20
32356;DHT22;62578;53.556;9.914;2022-08-01T12:28:04;24.00;49.10
32356;DHT22;62578;53.556;9.914;2022-08-01T12:30:31;24.00;48.80
32356;DHT22;62578;53.556;9.914;2022-08-01T12:32:57;24.10;48.80
32356;DHT22;62578;53.556;9.914;2022-08-01T12:35:25;24.10;48.90
32356;DHT22;62578;53.556;9.914;2022-08-01T12:37:55;24.10;49.00
32356;DHT22;62578;53.556;9.914;2022-08-01T12:40:24;24.10;48.90
32356;DHT22;62578;53.556;9.914;2022-08-01T12:42:55;24.20;48.70
32356;DHT22;62578;53.556;9.914;2022-08-01T12:45:24;24.20;48.70
32356;DHT22;62578;53.556;9.914;2022-08-01T12:47:52;24.20;48.60
32356;DHT22;62578;53.556;9.914;2022-08-01T12:50:20;24.20;48.50
32356;DHT22;62578;53.556;9.914;2022-08-01T12:52:50;24.20;48.50
32356;DHT22;62578;53.556;9.914;2022-08-01T12:55:23;24.30;48.60
32356;DHT22;62578;53.556;9.914;2022-08-01T12:58:09;24.30;48.30
32356;DHT22;62578;53.556;9.914;2022-08-01T13:00:36;24.30;47.80
32356;DHT22;62578;53.556;9.914;2022-08-01T13:05:53;24.30;47.50
32356;DHT22;62578;53.556;9.914;2022-08-01T13:08:33;24.20;47.00
32356;DHT22;62578;53.556;9.914;2022-08-01T13:11:10;24.20;46.50
32356;DHT22;62578;53.556;9.914;2022-08-01T13:13:44;24.10;46.30
32356;DHT22;62578;53.556;9.914;2022-08-01T13:16:13;24.10;46.80
32356;DHT22;62578;53.556;9.914;2022-08-01T13:18:39;24.10;46.70
32356;DHT22;62578;53.556;9.914;2022-08-01T13:21:27;24.10;46.80
32356;DHT22;62578;53.556;9.914;2022-08-01T13:24:12;24.20;46.40
32356;DHT22;62578;53.556;9.914;2022-08-01T13:26:42;24.80;46.90
32356;DHT22;62578;53.556;9.914;2022-08-01T13:29:10;24.20;46.80
32356;DHT22;62578;53.556;9.914;2022-08-01T13:31:37;24.30;46.80
32356;DHT22;62578;53.556;9.914;2022-08-01T13:34:04;24.30;46.70
32356;DHT22;62578;53.556;9.914;2022-08-01T13:36:30;24.40;46.50
32356;DHT22;62578;53.556;9.914;2022-08-01T13:38:59;24.40;46.30
32356;DHT22;62578;53.556;9.914;2022-08-01T13:41:44;24.40;46.10
32356;DHT22;62578;53.556;9.914;2022-08-01T13:44:10;24.40;45.90
32356;DHT22;62578;53.556;9.914;2022-08-01T13:46:40;24.50;45.90
32356;DHT22;62578;53.556;9.914;2022-08-01T13:49:07;24.50;45.50
32356;DHT22;62578;53.556;9.914;2022-08-01T13:51:34;24.50;45.50
32356;DHT22;62578;53.556;9.914;2022-08-01T13:54:00;24.50;45.40
32356;DHT22;62578;53.556;9.914;2022-08-01T13:56:26;24.50;45.20
32356;DHT22;62578;53.556;9.914;2022-08-01T13:58:56;24.60;45.40
32356;DHT22;62578;53.556;9.914;2022-08-01T14:01:22;24.60;45.50
32356;DHT22;62578;53.556;9.914;2022-08-01T14:03:47;24.60;45.70
32356;DHT22;62578;53.556;9.914;2022-08-01T14:06:14;24.60;45.90
32356;DHT22;62578;53.556;9.914;2022-08-01T14:08:41;24.70;45.90
32356;DHT22;62578;53.556;9.914;2022-08-01T14:11:07;24.70;46.00
32356;DHT22;62578;53.556;9.914;2022-08-01T14:13:33;24.80;46.00
32356;DHT22;62578;53.556;9.914;2022-08-01T14:15:58;24.80;46.00
32356;DHT22;62578;53.556;9.914;2022-08-01T14:18:25;24.80;45.90
32356;DHT22;62578;53.556;9.914;2022-08-01T14:20:51;24.90;46.10
32356;DHT22;62578;53.556;9.914;2022-08-01T14:23:16;24.90;46.10
32356;DHT22;62578;53.556;9.914;2022-08-01T14:25:42;24.90;46.10
32356;DHT22;62578;53.556;9.914;2022-08-01T14:28:09;25.00;46.20
32356;DHT22;62578;53.556;9.914;2022-08-01T14:30:35;25.00;46.20
32356;DHT22;62578;53.556;9.914;2022-08-01T14:33:02;25.10;46.20
32356;DHT22;62578;53.556;9.914;2022-08-01T14:35:28;25.10;46.20
32356;DHT22;62578;53.556;9.914;2022-08-01T14:37:53;25.10;46.80
32356;DHT22;62578;53.556;9.914;2022-08-01T14:40:19;25.20;46.20
32356;DHT22;62578;53.556;9.914;2022-08-01T14:42:45;25.40;46.10
32356;DHT22;62578;53.556;9.914;2022-08-01T14:45:11;25.60;45.80
32356;DHT22;62578;53.556;9.914;2022-08-01T14:47:39;25.90;45.20
32356;DHT22;62578;53.556;9.914;2022-08-01T14:50:07;26.30;44.50
32356;DHT22;62578;53.556;9.914;2022-08-01T14:52:34;26.80;43.70
32356;DHT22;62578;53.556;9.914;2022-08-01T14:55:00;27.30;43.00
32356;DHT22;62578;53.556;9.914;2022-08-01T14:57:26;27.70;42.10
32356;DHT22;62578;53.556;9.914;2022-08-01T14:59:52;28.10;41.40
32356;DHT22;62578;53.556;9.914;2022-08-01T15:02:18;28.50;40.80
32356;DHT22;62578;53.556;9.914;2022-08-01T15:04:45;28.70;40.30
32356;DHT22;62578;53.556;9.914;2022-08-01T15:07:11;28.90;39.80
32356;DHT22;62578;53.556;9.914;2022-08-01T15:09:37;29.10;39.60
32356;DHT22;62578;53.556;9.914;2022-08-01T15:12:03;29.20;39.30
32356;DHT22;62578;53.556;9.914;2022-08-01T15:14:29;29.20;38.10
32356;DHT22;62578;53.556;9.914;2022-08-01T15:19:42;29.10;38.20
32356;DHT22;62578;53.556;9.914;2022-08-01T15:22:08;28.90;38.20
32356;DHT22;62578;53.556;9.914;2022-08-01T15:24:34;28.70;38.50
32356;DHT22;62578;53.556;9.914;2022-08-01T15:26:59;28.40;38.70
32356;DHT22;62578;53.556;9.914;2022-08-01T15:29:25;28.20;38.90
32356;DHT22;62578;53.556;9.914;2022-08-01T15:31:51;28.00;39.30
32356;DHT22;62578;53.556;9.914;2022-08-01T15:34:16;27.90;39.40
32356;DHT22;62578;53.556;9.914;2022-08-01T15:36:42;27.90;39.70
32356;DHT22;62578;53.556;9.914;2022-08-01T15:39:09;27.80;40.20
32356;DHT22;62578;53.556;9.914;2022-08-01T15:41:35;27.90;40.20
32356;DHT22;62578;53.556;9.914;2022-08-01T15:44:01;28.10;40.00
32356;DHT22;62578;53.556;9.914;2022-08-01T15:46:27;28.30;39.80
32356;DHT22;62578;53.556;9.914;2022-08-01T15:48:52;28.50;39.60
32356;DHT22;62578;53.556;9.914;2022-08-01T15:51:18;28.70;39.30
32356;DHT22;62578;53.556;9.914;2022-08-01T15:53:43;28.80;39.10
32356;DHT22;62578;53.556;9.914;2022-08-01T15:56:11;29.00;38.90
32356;DHT22;62578;53.556;9.914;2022-08-01T15:58:37;29.20;38.70
32356;DHT22;62578;53.556;9.914;2022-08-01T16:01:02;29.40;38.50
32356;DHT22;62578;53.556;9.914;2022-08-01T16:03:28;29.50;38.30
32356;DHT22;62578;53.556;9.914;2022-08-01T16:05:54;29.60;38.20
32356;DHT22;62578;53.556;9.914;2022-08-01T16:08:19;29.70;38.10
32356;DHT22;62578;53.556;9.914;2022-08-01T16:10:45;29.80;38.00
32356;DHT22;62578;53.556;9.914;2022-08-01T16:13:11;29.90;37.80
32356;DHT22;62578;53.556;9.914;2022-08-01T16:15:37;30.00;37.70
32356;DHT22;62578;53.556;9.914;2022-08-01T16:18:05;30.10;37.40
32356;DHT22;62578;53.556;9.914;2022-08-01T16:20:31;30.10;37.20